sensor_id;sensor_type;location;lat;lon;timestamp;pressure;altitude;pressure_sealevel;temperature
48003;BMP280;33768;48.578;11.574;2024-01-25T00:00:52;97427.66;;;7.26
48003;BMP280;33768;48.578;11.574;2024-01-25T00:03:58;97425.69;;;7.27
48003;BMP280;33768;48.578;11.574;2024-01-25T00:07:11;97432.81;;;7.24
48003;BMP280;33768;48.578;11.574;2024-01-25T00:10:17;97420.94;;;7.22
48003;BMP280;33768;48.578;11.574;2024-01-25T00:13:21;97423.88;;;7.18
48003;BMP280;33768;48.578;11.574;2024-01-25T00:16:33;97421.16;;;7.18
48003;BMP280;33768;48.578;11.574;2024-01-25T00:19:39;97422.66;;;7.19
48003;BMP280;33768;48.578;11.574;2024-01-25T00:22:45;97425.63;;;7.21
48003;BMP280;33768;48.578;11.574;2024-01-25T00:25:49;97431.53;;;7.20
48003;BMP280;33768;48.578;11.574;2024-01-25T00:28:53;97432.09;;;7.24
48003;BMP280;33768;48.578;11.574;2024-01-25T00:32:02;97434.06;;;7.23
48003;BMP280;33768;48.578;11.574;2024-01-25T00:35:07;97426.84;;;7.20
48003;BMP280;33768;48.578;11.574;2024-01-25T00:38:18;97432.09;;;7.24
48003;BMP280;33768;48.578;11.574;2024-01-25T00:41:22;97434.31;;;7.25
48003;BMP280;33768;48.578;11.574;2024-01-25T00:44:27;97433.50;;;7.19
48003;BMP280;33768;48.578;11.574;2024-01-25T00:47:32;97432.03;;;7.18
48003;BMP280;33768;48.578;11.574;2024-01-25T00:50:41;97442.66;;;7.22
48003;BMP280;33768;48.578;11.574;2024-01-25T00:53:46;97426.69;;;7.29
48003;BMP280;33768;48.578;11.574;2024-01-25T00:56:50;97420.81;;;7.31
48003;BMP280;33768;48.578;11.574;2024-01-25T00:59:56;97430.16;;;7.30
48003;BMP280;33768;48.578;11.574;2024-01-25T01:03:03;97424.25;;;7.31
48003;BMP280;33768;48.578;11.574;2024-01-25T01:06:09;97411.66;;;7.28
48003;BMP280;33768;48.578;11.574;2024-01-25T01:09:15;97416.31;;;7.28
48003;BMP280;33768;48.578;11.574;2024-01-25T01:12:19;97429.47;;;7.35
48003;BMP280;33768;48.578;11.574;2024-01-25T01:15:23;97428.50;;;7.38
48003;BMP280;33768;48.578;11.574;2024-01-25T01:18:29;97422.06;;;7.35
48003;BMP280;33768;48.578;11.574;2024-01-25T01:21:45;97431.44;;;7.34
48003;BMP280;33768;48.578;11.574;2024-01-25T01:24:49;97437.16;;;7.36
48003;BMP280;33768;48.578;11.574;2024-01-25T01:27:57;97432.69;;;7.33
48003;BMP280;33768;48.578;11.574;2024-01-25T01:31:03;97429.78;;;7.42
48003;BMP280;33768;48.578;11.574;2024-01-25T01:34:08;97441.34;;;7.37
48003;BMP280;33768;48.578;11.574;2024-01-25T01:37:22;97438.34;;;7.35
48003;BMP280;33768;48.578;11.574;2024-01-25T01:40:26;97441.81;;;7.36
48003;BMP280;33768;48.578;11.574;2024-01-25T01:43:55;97438.34;;;7.35
48003;BMP280;33768;48.578;11.574;2024-01-25T01:46:59;97435.44;;;7.39
48003;BMP280;33768;48.578;11.574;2024-01-25T01:50:06;97435.69;;;7.41
48003;BMP280;33768;48.578;11.574;2024-01-25T01:53:11;97427.75;;;7.37
48003;BMP280;33768;48.578;11.574;2024-01-25T01:56:16;97421.09;;;7.38
48003;BMP280;33768;48.578;11.574;2024-01-25T01:59:22;97424.81;;;7.41
48003;BMP280;33768;48.578;11.574;2024-01-25T02:02:29;97423.66;;;7.47
48003;BMP280;33768;48.578;11.574;2024-01-25T02:05:35;97416.94;;;7.43
48003;BMP280;33768;48.578;11.574;2024-01-25T02:08:39;97410.03;;;7.42
48003;BMP280;33768;48.578;11.574;2024-01-25T02:11:43;97416.19;;;7.42
48003;BMP280;33768;48.578;11.574;2024-01-25T02:14:48;97401.34;;;7.38
48003;BMP280;33768;48.578;11.574;2024-01-25T02:17:52;97390.47;;;7.38
48003;BMP280;33768;48.578;11.574;2024-01-25T02:20:57;97402.81;;;7.33
48003;BMP280;33768;48.578;11.574;2024-01-25T02:24:05;97405.75;;;7.35
48003;BMP280;33768;48.578;11.574;2024-01-25T02:27:09;97402.81;;;7.33
48003;BMP280;33768;48.578;11.574;2024-01-25T02:30:13;97401.28;;;7.32
48003;BMP280;33768;48.578;11.574;2024-01-25T02:33:17;97390.66;;;7.29
48003;BMP280;33768;48.578;11.574;2024-01-25T02:36:22;97401.78;;;7.31
48003;BMP280;33768;48.578;11.574;2024-01-25T02:39:26;97411.41;;;7.32
48003;BMP280;33768;48.578;11.574;2024-01-25T02:42:31;97406.44;;;7.30
48003;BMP280;33768;48.578;11.574;2024-01-25T02:45:35;97398.31;;;7.30
48003;BMP280;33768;48.578;11.574;2024-01-25T02:48:40;97401.03;;;7.30
48003;BMP280;33768;48.578;11.574;2024-01-25T02:51:45;97391.13;;;7.27
48003;BMP280;33768;48.578;11.574;2024-01-25T02:55:09;97391.34;;;7.24
48003;BMP280;33768;48.578;11.574;2024-01-25T02:58:14;97381.69;;;7.23
48003;BMP280;33768;48.578;11.574;2024-01-25T03:01:18;97381.69;;;7.23
48003;BMP280;33768;48.578;11.574;2024-01-25T03:04:23;97372.59;;;7.26
48003;BMP280;33768;48.578;11.574;2024-01-25T03:07:28;97372.13;;;7.27
48003;BMP280;33768;48.578;11.574;2024-01-25T03:10:35;97369.91;;;7.26
48003;BMP280;33768;48.578;11.574;2024-01-25T03:13:39;97378.50;;;7.24
48003;BMP280;33768;48.578;11.574;2024-01-25T03:16:44;97381.22;;;7.24
48003;BMP280;33768;48.578;11.574;2024-01-25T03:19:50;97388.38;;;7.22
48003;BMP280;33768;48.578;11.574;2024-01-25T03:22:57;97390.06;;;7.19
48003;BMP280;33768;48.578;11.574;2024-01-25T03:26:02;97382.38;;;7.18
48003;BMP280;33768;48.578;11.574;2024-01-25T03:29:08;97409.50;;;7.13
48003;BMP280;33768;48.578;11.574;2024-01-25T03:32:14;97407.75;;;7.10
48003;BMP280;33768;48.578;11.574;2024-01-25T03:35:19;97411.97;;;7.11
48003;BMP280;33768;48.578;11.574;2024-01-25T03:38:25;97409.44;;;7.07
48003;BMP280;33768;48.578;11.574;2024-01-25T03:41:33;97415.38;;;7.06
48003;BMP280;33768;48.578;11.574;2024-01-25T03:44:37;97421.25;;;7.04
48003;BMP280;33768;48.578;11.574;2024-01-25T03:47:42;97433.56;;;7.00
48003;BMP280;33768;48.578;11.574;2024-01-25T03:50:46;97435.06;;;7.01
48003;BMP280;33768;48.578;11.574;2024-01-25T03:53:49;97440.28;;;7.04
48003;BMP280;33768;48.578;11.574;2024-01-25T03:56:54;97434.03;;;6.98
48003;BMP280;33768;48.578;11.574;2024-01-25T03:59:59;97442.19;;;6.98
48003;BMP280;33768;48.578;11.574;2024-01-25T04:03:10;97453.22;;;6.95
48003;BMP280;33768;48.578;11.574;2024-01-25T04:06:17;97431.78;;;6.97
48003;BMP280;33768;48.578;11.574;2024-01-25T04:09:21;97435.75;;;6.96
48003;BMP280;33768;48.578;11.574;2024-01-25T04:12:26;97439.72;;;7.00
48003;BMP280;33768;48.578;11.574;2024-01-25T04:15:30;97438.50;;;7.01
48003;BMP280;33768;48.578;11.574;2024-01-25T04:18:34;97446.84;;;6.98
48003;BMP280;33768;48.578;11.574;2024-01-25T04:21:38;97451.34;;;7.01
48003;BMP280;33768;48.578;11.574;2024-01-25T04:24:46;97454.53;;;6.99
48003;BMP280;33768;48.578;11.574;2024-01-25T04:27:52;97459.97;;;6.99
48003;BMP280;33768;48.578;11.574;2024-01-25T04:30:56;97446.38;;;6.99
48003;BMP280;33768;48.578;11.574;2024-01-25T04:34:01;97453.78;;;6.99
48003;BMP280;33768;48.578;11.574;2024-01-25T04:37:05;97459.56;;;7.06
48003;BMP280;33768;48.578;11.574;2024-01-25T04:40:12;97463.56;;;7.11
48003;BMP280;33768;48.578;11.574;2024-01-25T04:43:20;97472.22;;;7.15
48003;BMP280;33768;48.578;11.574;2024-01-25T04:46:24;97475.72;;;7.20
48003;BMP280;33768;48.578;11.574;2024-01-25T04:49:31;97482.25;;;7.28
48003;BMP280;33768;48.578;11.574;2024-01-25T04:52:37;97478.53;;;7.26
48003;BMP280;33768;48.578;11.574;2024-01-25T04:55:42;97488.09;;;7.21
48003;BMP280;33768;48.578;11.574;2024-01-25T04:58:51;97491.22;;;7.15
48003;BMP280;33768;48.578;11.574;2024-01-25T05:02:00;97497.63;;;7.12
48003;BMP280;33768;48.578;11.574;2024-01-25T05:05:08;97508.19;;;7.10
48003;BMP280;33768;48.578;11.574;2024-01-25T05:08:13;97507.13;;;7.02
48003;BMP280;33768;48.578;11.574;2024-01-25T05:11:22;97499.66;;;6.97
48003;BMP280;33768;48.578;11.574;2024-01-25T05:14:26;97500.63;;;6.94
48003;BMP280;33768;48.578;11.574;2024-01-25T05:17:31;97504.56;;;6.93
48003;BMP280;33768;48.578;11.574;2024-01-25T05:20:35;97516.34;;;6.90
48003;BMP280;33768;48.578;11.574;2024-01-25T05:23:40;97514.94;;;6.94
48003;BMP280;33768;48.578;11.574;2024-01-25T05:26:44;97518.53;;;6.86
48003;BMP280;33768;48.578;11.574;2024-01-25T05:29:49;97513.09;;;6.86
48003;BMP280;33768;48.578;11.574;2024-01-25T05:32:55;97510.13;;;6.84
48003;BMP280;33768;48.578;11.574;2024-01-25T05:36:05;97506.09;;;6.80
48003;BMP280;33768;48.578;11.574;2024-01-25T05:39:13;97509.84;;;6.82
48003;BMP280;33768;48.578;11.574;2024-01-25T05:42:19;97518.53;;;6.86
48003;BMP280;33768;48.578;11.574;2024-01-25T05:45:23;97519.50;;;6.83
48003;BMP280;33768;48.578;11.574;2024-01-25T05:48:28;97533.25;;;6.80
48003;BMP280;33768;48.578;11.574;2024-01-25T05:51:32;97542.13;;;6.80
48003;BMP280;33768;48.578;11.574;2024-01-25T05:54:37;97543.34;;;6.79
48003;BMP280;33768;48.578;11.574;2024-01-25T05:57:42;97545.34;;;6.79
48003;BMP280;33768;48.578;11.574;2024-01-25T06:00:48;97538.22;;;6.81
48003;BMP280;33768;48.578;11.574;2024-01-25T06:03:52;97542.63;;;6.79
48003;BMP280;33768;48.578;11.574;2024-01-25T06:06:58;97537.59;;;6.72
48003;BMP280;33768;48.578;11.574;2024-01-25T06:10:09;97552.72;;;6.78
48003;BMP280;33768;48.578;11.574;2024-01-25T06:13:18;97564.25;;;6.73
48003;BMP280;33768;48.578;11.574;2024-01-25T06:16:27;97578.91;;;6.81
48003;BMP280;33768;48.578;11.574;2024-01-25T06:19:34;97581.63;;;6.81
48003;BMP280;33768;48.578;11.574;2024-01-25T06:22:41;97593.22;;;6.82
48003;BMP280;33768;48.578;11.574;2024-01-25T06:25:45;97600.06;;;6.77
48003;BMP280;33768;48.578;11.574;2024-01-25T06:28:52;97605.72;;;6.74
48003;BMP280;33768;48.578;11.574;2024-01-25T06:31:58;97604.41;;;6.69
48003;BMP280;33768;48.578;11.574;2024-01-25T06:35:04;97612.34;;;6.73
48003;BMP280;33768;48.578;11.574;2024-01-25T06:38:09;97598.50;;;6.71
48003;BMP280;33768;48.578;11.574;2024-01-25T06:41:14;97597.28;;;6.72
48003;BMP280;33768;48.578;11.574;2024-01-25T06:44:21;97617.69;;;6.67
48003;BMP280;33768;48.578;11.574;2024-01-25T06:47:26;97616.75;;;6.70
48003;BMP280;33768;48.578;11.574;2024-01-25T06:50:30;97631.53;;;6.69
48003;BMP280;33768;48.578;11.574;2024-01-25T06:53:35;97616.81;;;7.10
48003;BMP280;33768;48.578;11.574;2024-01-25T06:56:40;97615.34;;;7.28
48003;BMP280;33768;48.578;11.574;2024-01-25T06:59:44;97613.75;;;7.02
48003;BMP280;33768;48.578;11.574;2024-01-25T07:02:50;97620.06;;;6.94
48003;BMP280;33768;48.578;11.574;2024-01-25T07:05:55;97623.16;;;6.87
48003;BMP280;33768;48.578;11.574;2024-01-25T07:08:59;97634.41;;;6.80
48003;BMP280;33768;48.578;11.574;2024-01-25T07:12:04;97617.75;;;6.73
48003;BMP280;33768;48.578;11.574;2024-01-25T07:15:11;97613.34;;;6.75
48003;BMP280;33768;48.578;11.574;2024-01-25T07:18:16;97622.53;;;6.78
48003;BMP280;33768;48.578;11.574;2024-01-25T07:21:25;97626.25;;;6.80
48003;BMP280;33768;48.578;11.574;2024-01-25T07:24:29;97629.56;;;6.70
48003;BMP280;33768;48.578;11.574;2024-01-25T07:27:47;97626.66;;;6.73
48003;BMP280;33768;48.578;11.574;2024-01-25T07:31:04;97623.47;;;6.75
48003;BMP280;33768;48.578;11.574;2024-01-25T07:34:38;97610.94;;;6.77
48003;BMP280;33768;48.578;11.574;2024-01-25T07:42:07;97581.75;;;6.72
48003;BMP280;33768;48.578;11.574;2024-01-25T07:45:12;97580.63;;;6.79
48003;BMP280;33768;48.578;11.574;2024-01-25T07:48:20;97590.59;;;6.87
48003;BMP280;33768;48.578;11.574;2024-01-25T07:51:25;97614.03;;;7.04
48003;BMP280;33768;48.578;11.574;2024-01-25T07:54:32;97638.34;;;7.13
48003;BMP280;33768;48.578;11.574;2024-01-25T07:57:36;97645.19;;;7.09
48003;BMP280;33768;48.578;11.574;2024-01-25T08:00:40;97650.88;;;6.91
48003;BMP280;33768;48.578;11.574;2024-01-25T08:03:45;97665.41;;;6.74
48003;BMP280;33768;48.578;11.574;2024-01-25T08:06:52;97658.38;;;6.67
48003;BMP280;33768;48.578;11.574;2024-01-25T08:09:56;97672.22;;;6.84
48003;BMP280;33768;48.578;11.574;2024-01-25T08:13:02;97666.34;;;7.05
48003;BMP280;33768;48.578;11.574;2024-01-25T08:16:09;97671.13;;;7.10
48003;BMP280;33768;48.578;11.574;2024-01-25T08:19:14;97669.22;;;7.16
48003;BMP280;33768;48.578;11.574;2024-01-25T08:22:18;97661.41;;;7.23
48003;BMP280;33768;48.578;11.574;2024-01-25T08:25:23;97669.19;;;7.49
48003;BMP280;33768;48.578;11.574;2024-01-25T08:28:28;97654.69;;;7.78
48003;BMP280;33768;48.578;11.574;2024-01-25T08:31:32;97644.44;;;7.87
48003;BMP280;33768;48.578;11.574;2024-01-25T08:34:37;97659.56;;;7.93
48003;BMP280;33768;48.578;11.574;2024-01-25T08:37:41;97660.44;;;8.05
48003;BMP280;33768;48.578;11.574;2024-01-25T08:40:45;97669.75;;;8.18
48003;BMP280;33768;48.578;11.574;2024-01-25T08:43:50;97678.59;;;8.38
48003;BMP280;33768;48.578;11.574;2024-01-25T08:47:13;97683.56;;;8.40
48003;BMP280;33768;48.578;11.574;2024-01-25T08:50:18;97681.63;;;8.45
48003;BMP280;33768;48.578;11.574;2024-01-25T08:53:22;97687.25;;;8.37
48003;BMP280;33768;48.578;11.574;2024-01-25T08:56:31;97698.19;;;8.17
48003;BMP280;33768;48.578;11.574;2024-01-25T08:59:35;97700.50;;;8.04
48003;BMP280;33768;48.578;11.574;2024-01-25T09:02:41;97704.69;;;8.05
48003;BMP280;33768;48.578;11.574;2024-01-25T09:05:46;97706.00;;;8.10
48003;BMP280;33768;48.578;11.574;2024-01-25T09:08:50;97701.03;;;8.08
48003;BMP280;33768;48.578;11.574;2024-01-25T09:11:55;97702.94;;;8.02
48003;BMP280;33768;48.578;11.574;2024-01-25T09:15:00;97700.50;;;8.04
48003;BMP280;33768;48.578;11.574;2024-01-25T09:18:04;97709.00;;;7.92
48003;BMP280;33768;48.578;11.574;2024-01-25T09:21:08;97716.13;;;7.89
48003;BMP280;33768;48.578;11.574;2024-01-25T09:24:12;97715.19;;;7.73
48003;BMP280;33768;48.578;11.574;2024-01-25T09:27:16;97720.28;;;7.65
48003;BMP280;33768;48.578;11.574;2024-01-25T09:30:21;97725.59;;;7.74
48003;BMP280;33768;48.578;11.574;2024-01-25T09:33:25;97732.72;;;7.72
48003;BMP280;33768;48.578;11.574;2024-01-25T09:36:29;97742.19;;;7.76
48003;BMP280;33768;48.578;11.574;2024-01-25T09:39:33;97752.16;;;7.84
48003;BMP280;33768;48.578;11.574;2024-01-25T09:42:37;97752.22;;;7.90
48003;BMP280;33768;48.578;11.574;2024-01-25T09:45:42;97751.59;;;8.00
48003;BMP280;33768;48.578;11.574;2024-01-25T09:48:47;97754.22;;;8.09
48003;BMP280;33768;48.578;11.574;2024-01-25T09:51:51;97743.78;;;8.27
48003;BMP280;33768;48.578;11.574;2024-01-25T09:54:56;97744.91;;;8.41
48003;BMP280;33768;48.578;11.574;2024-01-25T09:58:01;97743.94;;;8.43
48003;BMP280;33768;48.578;11.574;2024-01-25T10:01:11;97752.03;;;8.58
48003;BMP280;33768;48.578;11.574;2024-01-25T10:04:16;97759.84;;;8.50
48003;BMP280;33768;48.578;11.574;2024-01-25T10:07:39;97755.91;;;8.51
48003;BMP280;33768;48.578;11.574;2024-01-25T10:10:44;97758.50;;;8.41
48003;BMP280;33768;48.578;11.574;2024-01-25T10:13:49;97764.81;;;8.27
48003;BMP280;33768;48.578;11.574;2024-01-25T10:16:55;97767.81;;;8.09
48003;BMP280;33768;48.578;11.574;2024-01-25T10:19:59;97773.63;;;8.02
48003;BMP280;33768;48.578;11.574;2024-01-25T10:23:03;97763.72;;;7.99
48003;BMP280;33768;48.578;11.574;2024-01-25T10:26:08;97764.88;;;7.93
48003;BMP280;33768;48.578;11.574;2024-01-25T10:29:14;97771.81;;;7.94
48003;BMP280;33768;48.578;11.574;2024-01-25T10:32:18;97760.72;;;7.97
48003;BMP280;33768;48.578;11.574;2024-01-25T10:35:22;97751.50;;;8.09
48003;BMP280;33768;48.578;11.574;2024-01-25T10:38:33;97750.41;;;8.46
48003;BMP280;33768;48.578;11.574;2024-01-25T10:41:39;97742.09;;;8.55
48003;BMP280;33768;48.578;11.574;2024-01-25T10:44:43;97742.28;;;8.51
48003;BMP280;33768;48.578;11.574;2024-01-25T10:47:51;97740.06;;;8.75
48003;BMP280;33768;48.578;11.574;2024-01-25T10:50:56;97735.78;;;8.99
48003;BMP280;33768;48.578;11.574;2024-01-25T10:54:04;97737.66;;;8.82
48003;BMP280;33768;48.578;11.574;2024-01-25T10:57:10;97738.91;;;8.87
48003;BMP280;33768;48.578;11.574;2024-01-25T11:00:15;97724.28;;;9.15
48003;BMP280;33768;48.578;11.574;2024-01-25T11:03:20;97720.94;;;9.36
48003;BMP280;33768;48.578;11.574;2024-01-25T11:06:27;97718.94;;;9.31
48003;BMP280;33768;48.578;11.574;2024-01-25T11:09:31;97715.03;;;9.37
48003;BMP280;33768;48.578;11.574;2024-01-25T11:12:55;97711.50;;;9.73
48003;BMP280;33768;48.578;11.574;2024-01-25T11:16:14;97710.88;;;9.99
48003;BMP280;33768;48.578;11.574;2024-01-25T11:19:22;97713.19;;;9.65
48003;BMP280;33768;48.578;11.574;2024-01-25T11:22:36;97709.72;;;9.23
48003;BMP280;33768;48.578;11.574;2024-01-25T11:25:44;97698.22;;;9.08
48003;BMP280;33768;48.578;11.574;2024-01-25T11:28:48;97704.25;;;9.18
48003;BMP280;33768;48.578;11.574;2024-01-25T11:31:52;97685.53;;;9.41
48003;BMP280;33768;48.578;11.574;2024-01-25T11:34:58;97700.72;;;9.53
48003;BMP280;33768;48.578;11.574;2024-01-25T11:38:03;97679.94;;;9.56
48003;BMP280;33768;48.578;11.574;2024-01-25T11:41:08;97682.81;;;9.41
48003;BMP280;33768;48.578;11.574;2024-01-25T11:44:12;97694.63;;;9.22
48003;BMP280;33768;48.578;11.574;2024-01-25T11:47:20;97685.59;;;9.05
48003;BMP280;33768;48.578;11.574;2024-01-25T11:50:24;97689.63;;;9.15
48003;BMP280;33768;48.578;11.574;2024-01-25T11:53:28;97683.81;;;9.44
48003;BMP280;33768;48.578;11.574;2024-01-25T11:56:37;97682.81;;;9.88
48003;BMP280;33768;48.578;11.574;2024-01-25T11:59:46;97672.22;;;10.23
48003;BMP280;33768;48.578;11.574;2024-01-25T12:02:50;97670.28;;;10.29
48003;BMP280;33768;48.578;11.574;2024-01-25T12:05:54;97663.28;;;10.11
48003;BMP280;33768;48.578;11.574;2024-01-25T12:09:09;97643.41;;;10.00
48003;BMP280;33768;48.578;11.574;2024-01-25T12:12:13;97646.66;;;10.04
48003;BMP280;33768;48.578;11.574;2024-01-25T12:15:17;97648.41;;;10.07
48003;BMP280;33768;48.578;11.574;2024-01-25T12:18:21;97650.91;;;10.21
48003;BMP280;33768;48.578;11.574;2024-01-25T12:21:25;97640.50;;;10.30
48003;BMP280;33768;48.578;11.574;2024-01-25T12:24:31;97641.75;;;10.30
48003;BMP280;33768;48.578;11.574;2024-01-25T12:27:35;97631.34;;;10.28
48003;BMP280;33768;48.578;11.574;2024-01-25T12:30:39;97631.75;;;9.99
48003;BMP280;33768;48.578;11.574;2024-01-25T12:33:44;97637.38;;;9.74
48003;BMP280;33768;48.578;11.574;2024-01-25T12:36:48;97630.16;;;9.66
48003;BMP280;33768;48.578;11.574;2024-01-25T12:39:53;97635.34;;;9.64
48003;BMP280;33768;48.578;11.574;2024-01-25T12:42:58;97634.59;;;9.64
48003;BMP280;33768;48.578;11.574;2024-01-25T12:46:02;97630.63;;;9.59
48003;BMP280;33768;48.578;11.574;2024-01-25T12:49:06;97627.69;;;9.63
48003;BMP280;33768;48.578;11.574;2024-01-25T12:52:12;97631.13;;;9.63
48003;BMP280;33768;48.578;11.574;2024-01-25T12:55:16;97633.31;;;9.54
48003;BMP280;33768;48.578;11.574;2024-01-25T12:58:20;97625.59;;;9.41
48003;BMP280;33768;48.578;11.574;2024-01-25T13:01:25;97630.81;;;9.45
48003;BMP280;33768;48.578;11.574;2024-01-25T13:04:30;97623.16;;;9.49
48003;BMP280;33768;48.578;11.574;2024-01-25T13:07:35;97621.22;;;9.60
48003;BMP280;33768;48.578;11.574;2024-01-25T13:10:39;97616.25;;;9.64
48003;BMP280;33768;48.578;11.574;2024-01-25T13:13:44;97606.88;;;9.76
48003;BMP280;33768;48.578;11.574;2024-01-25T13:16:49;97605.63;;;9.77
48003;BMP280;33768;48.578;11.574;2024-01-25T13:19:53;97600.44;;;9.79
48003;BMP280;33768;48.578;11.574;2024-01-25T13:22:58;97612.38;;;9.87
48003;BMP280;33768;48.578;11.574;2024-01-25T13:26:02;97606.38;;;9.77
48003;BMP280;33768;48.578;11.574;2024-01-25T13:29:06;97594.25;;;9.73
48003;BMP280;33768;48.578;11.574;2024-01-25T13:32:10;97606.88;;;9.70
48003;BMP280;33768;48.578;11.574;2024-01-25T13:35:14;97598.97;;;9.78
48003;BMP280;33768;48.578;11.574;2024-01-25T13:38:19;97597.72;;;9.73
48003;BMP280;33768;48.578;11.574;2024-01-25T13:41:23;97599.91;;;9.69
48003;BMP280;33768;48.578;11.574;2024-01-25T13:44:27;97592.34;;;10.00
48003;BMP280;33768;48.578;11.574;2024-01-25T13:47:32;97587.91;;;10.19
48003;BMP280;33768;48.578;11.574;2024-01-25T13:50:36;97583.94;;;10.42
48003;BMP280;33768;48.578;11.574;2024-01-25T13:53:41;97581.19;;;10.58
48003;BMP280;33768;48.578;11.574;2024-01-25T13:56:47;97561.34;;;10.68
48003;BMP280;33768;48.578;11.574;2024-01-25T13:59:51;97568.00;;;10.73
48003;BMP280;33768;48.578;11.574;2024-01-25T14:02:55;97567.06;;;10.54
48003;BMP280;33768;48.578;11.574;2024-01-25T14:05:59;97556.16;;;10.11
48003;BMP280;33768;48.578;11.574;2024-01-25T14:09:08;97567.97;;;9.75
48003;BMP280;33768;48.578;11.574;2024-01-25T14:12:12;97552.53;;;9.45
48003;BMP280;33768;48.578;11.574;2024-01-25T14:15:16;97554.69;;;9.31
48003;BMP280;33768;48.578;11.574;2024-01-25T14:18:20;97543.53;;;9.23
48003;BMP280;33768;48.578;11.574;2024-01-25T14:21:24;97562.84;;;9.20
48003;BMP280;33768;48.578;11.574;2024-01-25T14:24:28;97568.28;;;9.20
48003;BMP280;33768;48.578;11.574;2024-01-25T14:27:33;97570.03;;;9.23
48003;BMP280;33768;48.578;11.574;2024-01-25T14:30:37;97557.59;;;9.16
48003;BMP280;33768;48.578;11.574;2024-01-25T14:33:41;97571.00;;;9.20
48003;BMP280;33768;48.578;11.574;2024-01-25T14:36:45;97561.06;;;9.17
48003;BMP280;33768;48.578;11.574;2024-01-25T14:39:49;97554.88;;;9.16
48003;BMP280;33768;48.578;11.574;2024-01-25T14:42:54;97561.56;;;9.15
48003;BMP280;33768;48.578;11.574;2024-01-25T14:45:58;97559.84;;;9.12
48003;BMP280;33768;48.578;11.574;2024-01-25T14:49:05;97545.94;;;9.05
48003;BMP280;33768;48.578;11.574;2024-01-25T14:52:09;97547.56;;;8.92
48003;BMP280;33768;48.578;11.574;2024-01-25T14:55:13;97545.81;;;8.83
48003;BMP280;33768;48.578;11.574;2024-01-25T14:58:18;97552.47;;;8.77
48003;BMP280;33768;48.578;11.574;2024-01-25T15:01:26;97543.06;;;8.78
48003;BMP280;33768;48.578;11.574;2024-01-25T15:04:34;97532.88;;;8.73
48003;BMP280;33768;48.578;11.574;2024-01-25T15:07:39;97543.00;;;8.67
48003;BMP280;33768;48.578;11.574;2024-01-25T15:10:44;97547.66;;;8.61
48003;BMP280;33768;48.578;11.574;2024-01-25T15:13:48;97539.69;;;8.52
48003;BMP280;33768;48.578;11.574;2024-01-25T15:16:52;97534.69;;;8.45
48003;BMP280;33768;48.578;11.574;2024-01-25T15:19:57;97538.81;;;8.36
48003;BMP280;33768;48.578;11.574;2024-01-25T15:23:01;97542.47;;;8.27
48003;BMP280;33768;48.578;11.574;2024-01-25T15:26:06;97544.63;;;8.18
48003;BMP280;33768;48.578;11.574;2024-01-25T15:29:10;97543.56;;;8.10
48003;BMP280;33768;48.578;11.574;2024-01-25T15:32:14;97539.03;;;8.02
48003;BMP280;33768;48.578;11.574;2024-01-25T15:35:19;97537.97;;;7.94
48003;BMP280;33768;48.578;11.574;2024-01-25T15:38:24;97536.44;;;7.87
48003;BMP280;33768;48.578;11.574;2024-01-25T15:41:28;97530.91;;;7.77
48003;BMP280;33768;48.578;11.574;2024-01-25T15:44:34;97531.59;;;7.72
48003;BMP280;33768;48.578;11.574;2024-01-25T15:47:38;97530.53;;;7.64
48003;BMP280;33768;48.578;11.574;2024-01-25T15:50:42;97532.38;;;7.52
48003;BMP280;33768;48.578;11.574;2024-01-25T15:53:46;97523.38;;;7.41
48003;BMP280;33768;48.578;11.574;2024-01-25T15:56:51;97531.41;;;7.30
48003;BMP280;33768;48.578;11.574;2024-01-25T15:59:55;97529.53;;;7.17
48003;BMP280;33768;48.578;11.574;2024-01-25T16:02:59;97524.22;;;7.08
48003;BMP280;33768;48.578;11.574;2024-01-25T16:06:04;97529.81;;;6.99
48003;BMP280;33768;48.578;11.574;2024-01-25T16:09:08;97527.28;;;6.95
48003;BMP280;33768;48.578;11.574;2024-01-25T16:12:13;97530.41;;;6.88
48003;BMP280;33768;48.578;11.574;2024-01-25T16:15:17;97526.13;;;6.82
48003;BMP280;33768;48.578;11.574;2024-01-25T16:18:21;97524.56;;;6.76
48003;BMP280;33768;48.578;11.574;2024-01-25T16:21:25;97522.03;;;6.72
48003;BMP280;33768;48.578;11.574;2024-01-25T16:24:29;97530.41;;;6.69
48003;BMP280;33768;48.578;11.574;2024-01-25T16:27:34;97539.47;;;6.66
48003;BMP280;33768;48.578;11.574;2024-01-25T16:30:38;97531.53;;;6.62
48003;BMP280;33768;48.578;11.574;2024-01-25T16:33:42;97531.28;;;6.60
48003;BMP280;33768;48.578;11.574;2024-01-25T16:36:46;97533.16;;;6.54
48003;BMP280;33768;48.578;11.574;2024-01-25T16:39:51;97529.16;;;6.50
48003;BMP280;33768;48.578;11.574;2024-01-25T16:42:55;97531.50;;;6.43
48003;BMP280;33768;48.578;11.574;2024-01-25T16:46:00;97535.06;;;6.34
48003;BMP280;33768;48.578;11.574;2024-01-25T16:49:04;97544.63;;;6.30
48003;BMP280;33768;48.578;11.574;2024-01-25T16:52:09;97534.72;;;6.27
48003;BMP280;33768;48.578;11.574;2024-01-25T16:55:17;97528.75;;;6.23
48003;BMP280;33768;48.578;11.574;2024-01-25T16:58:31;97539.03;;;6.19
48003;BMP280;33768;48.578;11.574;2024-01-25T17:01:36;97538.50;;;6.15
48003;BMP280;33768;48.578;11.574;2024-01-25T17:04:41;97544.81;;;6.12
48003;BMP280;33768;48.578;11.574;2024-01-25T17:07:45;97527.75;;;6.06
48003;BMP280;33768;48.578;11.574;2024-01-25T17:10:50;97524.50;;;6.02
48003;BMP280;33768;48.578;11.574;2024-01-25T17:13:54;97533.06;;;6.01
48003;BMP280;33768;48.578;11.574;2024-01-25T17:16:59;97540.25;;;5.90
48003;BMP280;33768;48.578;11.574;2024-01-25T17:20:04;97532.44;;;5.77
48003;BMP280;33768;48.578;11.574;2024-01-25T17:23:10;97538.50;;;5.72
48003;BMP280;33768;48.578;11.574;2024-01-25T17:26:14;97544.06;;;5.69
48003;BMP280;33768;48.578;11.574;2024-01-25T17:29:18;97546.53;;;5.67
48003;BMP280;33768;48.578;11.574;2024-01-25T17:32:24;97540.81;;;5.65
48003;BMP280;33768;48.578;11.574;2024-01-25T17:35:28;97533.88;;;5.64
48003;BMP280;33768;48.578;11.574;2024-01-25T17:38:32;97536.88;;;5.66
48003;BMP280;33768;48.578;11.574;2024-01-25T17:41:37;97530.72;;;5.65
48003;BMP280;33768;48.578;11.574;2024-01-25T17:44:42;97531.47;;;5.66
48003;BMP280;33768;48.578;11.574;2024-01-25T17:47:46;97519.44;;;5.67
48003;BMP280;33768;48.578;11.574;2024-01-25T17:50:51;97525.50;;;5.62
48003;BMP280;33768;48.578;11.574;2024-01-25T17:53:55;97540.25;;;5.61